createdAt,value
2023-03-29T00:04:02.709Z,1.4
2023-03-29T00:05:01.498Z,1.5
2023-03-29T00:08:01.232Z,1.4
2023-03-29T00:14:01.673Z,1.5
2023-03-29T00:18:01.882Z,1.4
2023-03-29T00:20:01.400Z,1.5
2023-03-29T00:21:01.456Z,1.4
2023-03-29T00:24:01.302Z,1.5
2023-03-29T00:32:01.322Z,1.6
2023-03-29T00:33:01.193Z,1.4
2023-03-29T00:36:01.407Z,1.5
2023-03-29T00:38:01.447Z,1.4
2023-03-29T00:41:01.591Z,1.7
2023-03-29T00:45:01.718Z,1.6
2023-03-29T00:47:01.383Z,1.7
2023-03-29T00:51:01.477Z,1.9
2023-03-29T00:53:01.607Z,1.8
2023-03-29T00:55:01.618Z,1.9
2023-03-29T01:01:01.488Z,2
2023-03-29T01:02:01.225Z,1.9
2023-03-29T01:03:01.635Z,2
2023-03-29T01:05:01.399Z,2.2
2023-03-29T01:06:01.415Z,2.1
2023-03-29T01:14:01.573Z,2.1
2023-03-29T01:17:01.376Z,2.2
2023-03-29T01:19:01.342Z,2.1
2023-03-29T01:22:01.596Z,2.3
2023-03-29T01:30:01.424Z,2.4
2023-03-29T01:35:01.191Z,2.3
2023-03-29T01:37:01.622Z,2.4
2023-03-29T01:39:01.320Z,2.5
2023-03-29T01:41:01.609Z,2.6
2023-03-29T01:43:01.288Z,2.7
2023-03-29T01:44:01.486Z,2.5
2023-03-29T01:45:01.856Z,2.6
2023-03-29T01:49:01.444Z,2.5
2023-03-29T01:51:01.225Z,2.5
2023-03-29T01:53:01.124Z,2.6
2023-03-29T01:54:01.194Z,2.8
2023-03-29T01:58:01.161Z,2.7
2023-03-29T02:02:01.568Z,2.6
2023-03-29T02:04:01.155Z,2.7
2023-03-29T02:07:01.382Z,2.8
2023-03-29T02:09:01.459Z,2.7
2023-03-29T02:10:02.085Z,2.8
2023-03-29T02:14:01.411Z,2.7
2023-03-29T02:15:01.310Z,2.8
2023-03-29T02:16:01.686Z,2.7
2023-03-29T02:20:01.229Z,2.9
2023-03-29T02:22:01.359Z,2.8
2023-03-29T02:23:01.223Z,2.9
2023-03-29T02:24:01.205Z,2.8
2023-03-29T02:27:01.292Z,2.9
2023-03-29T02:28:01.567Z,2.8
2023-03-29T02:29:01.468Z,3
2023-03-29T02:32:01.385Z,2.8
2023-03-29T02:34:01.357Z,2.9
2023-03-29T02:37:01.247Z,3
2023-03-29T02:49:01.176Z,3.1
2023-03-29T02:50:01.254Z,3
2023-03-29T03:00:01.187Z,3.1
2023-03-29T03:02:01.272Z,3
2023-03-29T03:10:01.192Z,3.1
2023-03-29T03:12:01.365Z,3
2023-03-29T03:16:01.588Z,3
2023-03-29T03:20:01.407Z,2.8
2023-03-29T03:25:01.142Z,3
2023-03-29T03:28:01.186Z,2.9
2023-03-29T03:31:01.418Z,3
2023-03-29T03:33:01.214Z,2.9
2023-03-29T03:34:01.299Z,3.1
2023-03-29T03:35:01.214Z,2.9
2023-03-29T03:38:00.980Z,3
2023-03-29T03:40:01.078Z,2.8
2023-03-29T03:41:01.431Z,2.9
2023-03-29T03:42:01.258Z,3
2023-03-29T03:43:01.214Z,2.8
2023-03-29T03:48:01.266Z,2.9
2023-03-29T03:50:01.674Z,3
2023-03-29T03:52:01.164Z,3
2023-03-29T03:54:01.206Z,3.1
2023-03-29T03:55:01.370Z,2.9
2023-03-29T03:57:01.113Z,3
2023-03-29T03:58:01.255Z,2.9
2023-03-29T04:00:01.555Z,3
2023-03-29T04:01:01.608Z,2.9
2023-03-29T04:03:01.538Z,2.9
2023-03-29T04:12:01.387Z,2.8
2023-03-29T04:16:01.915Z,3
2023-03-29T04:17:01.213Z,2.9
2023-03-29T04:19:01.194Z,2.8
2023-03-29T04:20:01.153Z,3
2023-03-29T04:21:01.509Z,2.9
2023-03-29T04:23:01.469Z,2.8
2023-03-29T04:25:01.132Z,2.9
2023-03-29T04:26:01.155Z,2.8
2023-03-29T04:27:01.190Z,2.9
2023-03-29T04:29:01.534Z,2.8
2023-03-29T04:30:02.034Z,2.9
2023-03-29T04:32:01.263Z,3
2023-03-29T04:33:01.511Z,2.9
2023-03-29T04:36:01.417Z,3
2023-03-29T04:42:01.191Z,2.8
2023-03-29T04:43:01.048Z,3
2023-03-29T04:44:01.115Z,2.9
2023-03-29T04:46:01.291Z,3
2023-03-29T04:48:01.323Z,2.9
2023-03-29T04:50:01.553Z,3
2023-03-29T04:52:01.161Z,3
2023-03-29T04:54:01.155Z,2.9
2023-03-29T04:55:01.441Z,3
2023-03-29T04:57:01.121Z,3
2023-03-29T05:04:01.273Z,2.9
2023-03-29T05:05:01.140Z,3
2023-03-29T05:07:01.246Z,2.9
2023-03-29T05:08:01.500Z,3
2023-03-29T05:09:01.284Z,2.9
2023-03-29T05:12:01.306Z,3
2023-03-29T05:13:01.219Z,3.1
2023-03-29T05:14:01.110Z,3
2023-03-29T05:18:01.206Z,2.9
2023-03-29T05:19:01.389Z,2.8
2023-03-29T05:20:01.373Z,3
2023-03-29T05:23:01.266Z,2.9
2023-03-29T05:25:01.112Z,3
2023-03-29T05:29:01.221Z,2.9
2023-03-29T05:34:01.337Z,3
2023-03-29T05:41:01.325Z,2.9
2023-03-29T05:42:01.386Z,3.1
2023-03-29T05:45:01.334Z,2.9
2023-03-29T05:46:01.367Z,3.1
2023-03-29T05:51:01.272Z,3.1
2023-03-29T05:54:01.178Z,3
2023-03-29T05:55:01.244Z,2.9
2023-03-29T05:56:01.448Z,3
2023-03-29T05:59:01.232Z,2.9
2023-03-29T06:01:01.900Z,3
2023-03-29T06:03:09.967Z,2.9
2023-03-29T06:05:01.336Z,2.9
2023-03-29T06:09:01.508Z,3
2023-03-29T06:10:01.362Z,2.9
2023-03-29T06:11:03.945Z,3
2023-03-29T06:12:01.323Z,2.9
2023-03-29T06:14:01.444Z,2.9
2023-03-29T06:16:01.559Z,2.8
2023-03-29T06:17:01.496Z,2.9
2023-03-29T06:19:01.382Z,3
2023-03-29T06:21:01.305Z,2.9
2023-03-29T06:22:01.328Z,3
2023-03-29T06:26:01.227Z,2.9
2023-03-29T06:32:01.236Z,3
2023-03-29T06:34:01.346Z,3.1
2023-03-29T06:36:01.244Z,3
2023-03-29T06:39:01.404Z,3.1
2023-03-29T06:41:01.194Z,3.2
2023-03-29T06:42:07.410Z,3.1
2023-03-29T06:45:01.446Z,3.2
2023-03-29T06:49:01.088Z,3.4
2023-03-29T06:51:01.310Z,3.4
2023-03-29T06:52:01.220Z,3.3
2023-03-29T06:55:01.033Z,3.4
2023-03-29T06:57:01.307Z,3.3
2023-03-29T06:58:02.794Z,3.4
2023-03-29T07:01:01.376Z,3.3
2023-03-29T07:02:01.096Z,3.4
2023-03-29T07:03:01.130Z,3.5
2023-03-29T07:06:01.200Z,3.4
2023-03-29T07:08:01.054Z,3.5
2023-03-29T07:09:01.831Z,3.4
2023-03-29T07:14:01.172Z,3.6
2023-03-29T07:17:01.082Z,3.5
2023-03-29T07:19:01.138Z,3.6
2023-03-29T07:21:01.395Z,3.5
2023-03-29T07:22:01.211Z,3.6
2023-03-29T07:23:01.376Z,3.7
2023-03-29T07:25:01.263Z,3.6
2023-03-29T07:26:01.279Z,3.5
2023-03-29T07:27:04.324Z,3.7
2023-03-29T07:29:01.261Z,3.6
2023-03-29T07:30:01.328Z,3.7
2023-03-29T07:34:01.075Z,3.6
2023-03-29T07:35:01.080Z,3.8
2023-03-29T07:40:01.119Z,3.9
2023-03-29T07:42:01.179Z,3.9
2023-03-29T07:44:03.275Z,4
2023-03-29T07:49:01.121Z,4.1
2023-03-29T07:51:01.374Z,4.2
2023-03-29T07:52:01.196Z,4.3
2023-03-29T07:54:01.429Z,4.2
2023-03-29T07:58:01.126Z,4.4
2023-03-29T08:00:01.215Z,4.5
2023-03-29T08:04:01.123Z,4.6
2023-03-29T08:05:01.144Z,4.5
2023-03-29T08:08:01.249Z,4.8
2023-03-29T08:09:01.297Z,4.7
2023-03-29T08:11:01.262Z,4.7
2023-03-29T08:12:01.119Z,5
2023-03-29T08:14:01.040Z,5
2023-03-29T08:16:00.993Z,5.1
2023-03-29T08:19:01.016Z,5.2
2023-03-29T08:20:01.176Z,5.1
2023-03-29T08:21:01.250Z,5.3
2023-03-29T08:23:01.231Z,5.4
2023-03-29T08:25:01.508Z,5.3
2023-03-29T08:28:01.064Z,5.6
2023-03-29T08:34:01.000Z,5.5
2023-03-29T08:35:01.057Z,5.7
2023-03-29T08:40:01.068Z,5.8
2023-03-29T08:41:01.329Z,5.9
2023-03-29T08:44:01.166Z,6
2023-03-29T08:45:01.303Z,5.8
2023-03-29T08:47:01.182Z,6
2023-03-29T08:50:01.404Z,6.1
2023-03-29T08:51:01.329Z,6
2023-03-29T08:53:00.968Z,6.1
2023-03-29T08:54:01.185Z,6.2
2023-03-29T08:57:01.297Z,6.3
2023-03-29T09:00:01.190Z,6.3
2023-03-29T09:02:01.109Z,6.4
2023-03-29T09:04:01.221Z,6.5
2023-03-29T09:09:01.099Z,6.7
2023-03-29T09:11:01.214Z,6.6
2023-03-29T09:14:01.038Z,6.8
2023-03-29T09:16:01.136Z,6.7
2023-03-29T09:19:01.073Z,7
2023-03-29T09:21:01.258Z,7.1
2023-03-29T09:24:00.972Z,7.2
2023-03-29T09:26:00.978Z,7.1
2023-03-29T09:27:01.201Z,7.4
2023-03-29T09:29:00.977Z,7.4
2023-03-29T09:30:01.160Z,7.3
2023-03-29T09:32:01.059Z,7.5
2023-03-29T09:34:01.025Z,7.4
2023-03-29T09:35:01.038Z,7.6
2023-03-29T09:37:01.184Z,7.6
2023-03-29T09:39:01.138Z,7.8
2023-03-29T09:41:01.230Z,7.9
2023-03-29T09:43:00.961Z,8
2023-03-29T09:45:01.358Z,8.2
2023-03-29T09:49:01.025Z,8.5
2023-03-29T09:51:01.274Z,8.7
2023-03-29T09:52:01.068Z,8.8
2023-03-29T09:55:01.000Z,8.9
2023-03-29T09:56:01.214Z,9
2023-03-29T09:59:00.977Z,9.2
2023-03-29T10:00:01.211Z,9.3
2023-03-29T10:07:01.193Z,9.5
2023-03-29T10:08:01.081Z,9.7
2023-03-29T10:09:01.033Z,9.6
2023-03-29T10:11:01.482Z,9.7
2023-03-29T10:13:00.976Z,9.7
2023-03-29T10:15:01.293Z,9.8
2023-03-29T10:24:01.029Z,9.6
2023-03-29T10:25:01.077Z,9.9
2023-03-29T10:27:01.073Z,10
2023-03-29T10:31:01.255Z,10.2
2023-03-29T10:32:01.222Z,10.3
2023-03-29T10:34:01.119Z,10.5
2023-03-29T10:36:01.108Z,10.5
2023-03-29T10:37:01.446Z,10.6
2023-03-29T10:38:01.220Z,10.5
2023-03-29T10:39:02.815Z,10.6
2023-03-29T10:40:01.377Z,10.7
2023-03-29T10:42:01.119Z,10.8
2023-03-29T10:45:01.079Z,11
2023-03-29T10:47:01.244Z,11.2
2023-03-29T10:49:00.954Z,11.3
2023-03-29T10:50:01.167Z,11.2
2023-03-29T10:51:01.597Z,11.4
2023-03-29T10:54:01.246Z,11.3
2023-03-29T10:56:01.086Z,11.3
2023-03-29T10:57:01.050Z,11.4
2023-03-29T10:58:01.065Z,11.3
2023-03-29T11:00:01.182Z,11.5
2023-03-29T11:03:01.153Z,11.7
2023-03-29T11:05:01.030Z,11.3
2023-03-29T11:07:01.105Z,11.3
2023-03-29T11:12:12.541Z,11.4
2023-03-29T11:14:00.965Z,11.5
2023-03-29T11:15:00.991Z,11.4
2023-03-29T11:19:01.092Z,11.5
2023-03-29T11:21:01.117Z,11.3
2023-03-29T11:23:01.366Z,11.2
2023-03-29T11:25:01.027Z,11
2023-03-29T11:27:00.982Z,10.9
2023-03-29T11:31:01.125Z,10.8
2023-03-29T11:34:01.183Z,10.9
2023-03-29T11:37:00.960Z,10.7
2023-03-29T11:38:01.273Z,10.9
2023-03-29T11:41:01.247Z,10.9
2023-03-29T11:43:00.980Z,10.9
2023-03-29T11:45:01.020Z,11
2023-03-29T11:49:01.075Z,11.2
2023-03-29T11:51:01.232Z,11.2
2023-03-29T11:54:00.960Z,11.3
2023-03-29T11:57:01.141Z,11.5
2023-03-29T11:59:01.053Z,11.5
2023-03-29T12:01:01.153Z,11.6
2023-03-29T12:03:01.127Z,11.6
2023-03-29T12:07:00.970Z,11.8
2023-03-29T12:08:00.950Z,11.7
2023-03-29T12:09:01.005Z,11.8
2023-03-29T12:11:01.306Z,12
2023-03-29T12:12:00.985Z,11.8
2023-03-29T12:13:01.107Z,11.9
2023-03-29T12:16:01.064Z,11.9
2023-03-29T12:18:00.989Z,12
2023-03-29T12:19:01.061Z,11.8
2023-03-29T12:21:01.003Z,11.9
2023-03-29T12:24:00.983Z,11.8
2023-03-29T12:25:01.063Z,11.9
2023-03-29T12:29:01.095Z,12.1
2023-03-29T12:30:01.129Z,11.9
2023-03-29T12:34:00.987Z,11.9
2023-03-29T12:37:01.050Z,12
2023-03-29T12:39:01.084Z,12
2023-03-29T12:41:01.091Z,11.9
2023-03-29T12:42:01.084Z,12.2
2023-03-29T12:46:01.700Z,12.4
2023-03-29T12:48:00.976Z,12.5
2023-03-29T12:50:00.993Z,12.6
2023-03-29T12:53:01.010Z,12.7
2023-03-29T12:55:00.950Z,12.8
2023-03-29T12:57:01.079Z,12.7
2023-03-29T12:59:01.096Z,12.6
2023-03-29T13:00:01.224Z,12.8
2023-03-29T13:03:01.047Z,12.6
2023-03-29T13:04:00.967Z,12.7
2023-03-29T13:05:01.083Z,12.8
2023-03-29T13:07:00.962Z,12.6
2023-03-29T13:10:00.943Z,12.7
2023-03-29T13:11:01.023Z,12.6
2023-03-29T13:13:00.960Z,12.8
2023-03-29T13:17:08.708Z,12.9
2023-03-29T13:19:00.961Z,12.6
2023-03-29T13:21:00.958Z,12.7
2023-03-29T13:22:01.061Z,12.5
2023-03-29T13:27:00.963Z,12.5
2023-03-29T13:28:00.952Z,12.7
2023-03-29T13:30:01.054Z,12.9
2023-03-29T13:32:00.965Z,12.8
2023-03-29T13:33:01.005Z,13
2023-03-29T13:34:00.950Z,12.9
2023-03-29T13:35:01.000Z,12.8
2023-03-29T13:37:00.958Z,12.8
2023-03-29T13:38:00.935Z,12.7
2023-03-29T13:40:00.956Z,12.8
2023-03-29T13:41:00.943Z,12.7
2023-03-29T13:43:01.002Z,12.5
2023-03-29T13:45:01.096Z,12.5
2023-03-29T13:47:01.057Z,12.6
2023-03-29T13:50:01.023Z,12.4
2023-03-29T13:53:01.034Z,12.5
2023-03-29T13:55:00.945Z,12.7
2023-03-29T13:56:01.075Z,12.6
2023-03-29T13:57:00.977Z,12.8
2023-03-29T13:58:00.946Z,12.7
2023-03-29T13:59:00.951Z,12.8
2023-03-29T14:00:01.128Z,12.7
2023-03-29T14:02:00.966Z,12.8
2023-03-29T14:04:00.971Z,12.7
2023-03-29T14:06:01.236Z,12.6
2023-03-29T14:08:01.006Z,12.5
2023-03-29T14:10:00.993Z,12.6
2023-03-29T14:11:00.948Z,12.5
2023-03-29T14:15:01.144Z,12.6
2023-03-29T14:17:01.098Z,12.6
2023-03-29T14:18:01.054Z,12.5
2023-03-29T14:19:00.976Z,12.4
2023-03-29T14:21:00.994Z,12.3
2023-03-29T14:22:01.007Z,12.5
2023-03-29T14:24:00.936Z,12.4
2023-03-29T14:25:00.942Z,12.5
2023-03-29T14:26:01.124Z,12.4
2023-03-29T14:27:00.955Z,12.3
2023-03-29T14:29:00.961Z,12.4
2023-03-29T14:36:01.226Z,12.5
2023-03-29T14:37:01.038Z,12.6
2023-03-29T14:39:00.980Z,12.7
2023-03-29T14:41:01.023Z,12.7
2023-03-29T14:43:00.992Z,12.6
2023-03-29T14:45:00.968Z,12.5
2023-03-29T14:46:01.109Z,12.6
2023-03-29T14:49:00.948Z,12.4
2023-03-29T14:50:01.028Z,12.5
2023-03-29T14:54:00.951Z,12.3
2023-03-29T14:57:01.050Z,12.2
2023-03-29T14:59:01.057Z,12.3
2023-03-29T15:01:00.976Z,12.2
2023-03-29T15:03:01.062Z,12.3
2023-03-29T15:04:01.017Z,12.2
2023-03-29T15:06:01.058Z,12.4
2023-03-29T15:07:00.971Z,12.1
2023-03-29T15:08:00.968Z,12.3
2023-03-29T15:09:05.769Z,12.2
2023-03-29T15:10:01.085Z,12.4
2023-03-29T15:17:00.943Z,12.4
2023-03-29T15:18:00.954Z,12.3
2023-03-29T15:19:00.989Z,12.2
2023-03-29T15:21:00.999Z,12.2
2023-03-29T15:23:00.947Z,12.3
2023-03-29T15:25:00.974Z,12.4
2023-03-29T15:27:01.059Z,12.2
2023-03-29T15:29:01.028Z,12.1
2023-03-29T15:31:07.600Z,12
2023-03-29T15:33:01.054Z,12.1
2023-03-29T15:34:00.995Z,12
2023-03-29T15:36:01.246Z,11.9
2023-03-29T15:38:00.971Z,11.9
2023-03-29T15:40:00.972Z,11.8
2023-03-29T15:41:01.083Z,11.7
2023-03-29T15:43:01.018Z,11.6
2023-03-29T15:45:01.008Z,11.6
2023-03-29T15:47:01.348Z,11.8
2023-03-29T15:49:00.945Z,11.7
2023-03-29T15:50:00.991Z,11.5
2023-03-29T15:52:01.021Z,11.6
2023-03-29T15:53:12.581Z,11.5
2023-03-29T15:55:00.962Z,11.3
2023-03-29T15:56:01.262Z,11.4
2023-03-29T15:59:00.984Z,11.4
2023-03-29T16:02:01.107Z,11.3
2023-03-29T16:04:01.035Z,11.3
2023-03-29T16:06:01.266Z,11.4
2023-03-29T16:07:01.015Z,11.2
2023-03-29T16:08:01.044Z,11.4
2023-03-29T16:13:00.994Z,11.4
2023-03-29T16:16:01.169Z,11.2
2023-03-29T16:22:00.988Z,11.2
2023-03-29T16:24:00.947Z,11.1
2023-03-29T16:25:00.981Z,11.2
2023-03-29T16:31:01.011Z,11.1
2023-03-29T16:32:01.042Z,11.2
2023-03-29T16:35:00.973Z,11
2023-03-29T16:36:01.113Z,11.1
2023-03-29T16:38:00.983Z,11
2023-03-29T16:41:00.996Z,11.1
2023-03-29T16:43:01.116Z,11
2023-03-29T16:45:00.995Z,10.8
2023-03-29T16:47:01.074Z,11
2023-03-29T16:49:01.016Z,11
2023-03-29T16:51:01.022Z,10.8
2023-03-29T16:52:01.018Z,10.9
2023-03-29T16:53:01.044Z,10.8
2023-03-29T16:55:01.003Z,10.6
2023-03-29T16:58:00.953Z,10.6
2023-03-29T16:59:00.972Z,10.5
2023-03-29T17:00:01.046Z,10.6
2023-03-29T17:01:01.116Z,10.5
2023-03-29T17:03:00.980Z,10.6
2023-03-29T17:05:00.973Z,10.5
2023-03-29T17:06:01.162Z,10.4
2023-03-29T17:08:00.988Z,10.5
2023-03-29T17:09:01.016Z,10.6
2023-03-29T17:11:01.038Z,10.3
2023-03-29T17:12:01.086Z,10.5
2023-03-29T17:14:00.991Z,10.3
2023-03-29T17:16:01.341Z,10.4
2023-03-29T17:17:01.015Z,10.3
2023-03-29T17:19:01.014Z,10.2
2023-03-29T17:21:00.986Z,10.1
2023-03-29T17:22:01.020Z,10
2023-03-29T17:23:01.005Z,10.2
2023-03-29T17:24:01.034Z,10.1
2023-03-29T17:25:01.034Z,10
2023-03-29T17:26:01.158Z,10.2
2023-03-29T17:29:01.062Z,10.1
2023-03-29T17:31:01.043Z,10
2023-03-29T17:32:01.035Z,9.9
2023-03-29T17:33:01.213Z,10
2023-03-29T17:34:01.196Z,9.8
2023-03-29T17:36:01.462Z,10
2023-03-29T17:37:01.040Z,9.8
2023-03-29T17:39:02.541Z,9.6
2023-03-29T17:43:01.209Z,9.7
2023-03-29T17:47:01.375Z,9.4
2023-03-29T17:48:02.881Z,9.3
2023-03-29T17:53:01.332Z,9.3
2023-03-29T17:54:01.282Z,9.4
2023-03-29T17:55:01.342Z,9.2
2023-03-29T17:57:00.970Z,9.3
2023-03-29T17:58:00.982Z,9.4
2023-03-29T18:00:01.016Z,9.4
2023-03-29T18:02:00.990Z,9.2
2023-03-29T18:05:00.935Z,9.3
2023-03-29T18:06:01.064Z,9.2
2023-03-29T18:07:00.985Z,9.3
2023-03-29T18:09:01.022Z,9.1
2023-03-29T18:11:01.022Z,9.2
2023-03-29T18:12:01.052Z,9.3
2023-03-29T18:14:01.031Z,9.3
2023-03-29T18:15:01.102Z,9.1
2023-03-29T18:17:01.118Z,9.1
2023-03-29T18:18:01.030Z,9.2
2023-03-29T18:20:01.110Z,9
2023-03-29T18:24:01.084Z,9.1
2023-03-29T18:26:01.346Z,9.1
2023-03-29T18:28:01.022Z,9.1
2023-03-29T18:32:01.055Z,9.2
2023-03-29T18:35:01.026Z,9
2023-03-29T18:36:01.300Z,9.1
2023-03-29T18:38:01.107Z,9
2023-03-29T18:42:01.058Z,9.1
2023-03-29T18:44:01.058Z,9.1
2023-03-29T18:45:01.143Z,9
2023-03-29T18:47:01.001Z,8.9
2023-03-29T18:48:01.058Z,9.1
2023-03-29T18:50:01.100Z,8.9
2023-03-29T18:53:01.020Z,8.9
2023-03-29T18:55:01.312Z,9
2023-03-29T19:00:01.233Z,8.8
2023-03-29T19:02:01.015Z,8.9
2023-03-29T19:06:01.200Z,8.8
2023-03-29T19:08:01.004Z,8.9
2023-03-29T19:10:01.071Z,8.7
2023-03-29T19:12:01.028Z,8.7
2023-03-29T19:15:01.013Z,8.8
2023-03-29T19:16:01.240Z,8.7
2023-03-29T19:18:01.050Z,8.7
2023-03-29T19:23:00.977Z,8.8
2023-03-29T19:26:01.192Z,8.7
2023-03-29T19:32:01.066Z,8.7
2023-03-29T19:34:01.047Z,8.9
2023-03-29T19:36:01.102Z,8.8
2023-03-29T19:38:01.041Z,8.8
2023-03-29T19:39:01.235Z,8.7
2023-03-29T19:41:01.065Z,8.7
2023-03-29T19:42:01.016Z,8.8
2023-03-29T19:44:01.050Z,8.9
2023-03-29T19:47:00.994Z,8.9
2023-03-29T19:48:03.101Z,8.7
2023-03-29T19:50:02.043Z,8.9
2023-03-29T19:52:01.033Z,9
2023-03-29T19:54:01.038Z,8.9
2023-03-29T19:55:01.044Z,8.8
2023-03-29T19:58:01.043Z,8.9
2023-03-29T20:02:01.038Z,9.1
2023-03-29T20:03:01.083Z,8.9
2023-03-29T20:04:01.081Z,8.8
2023-03-29T20:06:01.079Z,8.8
2023-03-29T20:10:01.003Z,9
2023-03-29T20:11:01.101Z,8.9
2023-03-29T20:12:01.020Z,8.8
2023-03-29T20:14:01.056Z,9.1
2023-03-29T20:15:01.099Z,8.9
2023-03-29T20:19:00.971Z,9
2023-03-29T20:20:01.025Z,8.9
2023-03-29T20:22:01.010Z,8.9
2023-03-29T20:26:01.049Z,8.8
2023-03-29T20:28:01.147Z,8.9
2023-03-29T20:30:01.257Z,9
2023-03-29T20:33:01.072Z,9
2023-03-29T20:34:01.094Z,8.8
2023-03-29T20:35:01.086Z,8.9
2023-03-29T20:36:01.333Z,8.7
2023-03-29T20:41:01.047Z,8.8
2023-03-29T20:42:01.194Z,8.9
2023-03-29T20:45:01.003Z,8.7
2023-03-29T20:46:01.049Z,8.8
2023-03-29T20:47:01.056Z,8.9
2023-03-29T20:48:01.129Z,8.8
2023-03-29T20:50:01.050Z,8.9
2023-03-29T20:51:01.231Z,8.7
2023-03-29T20:53:01.056Z,8.8
2023-03-29T20:54:01.057Z,8.9
2023-03-29T20:56:01.064Z,8.8
2023-03-29T20:59:01.036Z,8.6
2023-03-29T21:00:01.189Z,8.8
2023-03-29T21:02:01.237Z,8.8
2023-03-29T21:04:01.094Z,8.7
2023-03-29T21:08:01.089Z,8.6
2023-03-29T21:10:01.035Z,8.6
2023-03-29T21:12:01.018Z,8.8
2023-03-29T21:15:01.144Z,8.7
2023-03-29T21:17:01.002Z,8.8
2023-03-29T21:18:01.206Z,8.7
2023-03-29T21:20:01.099Z,8.7
2023-03-29T21:22:01.076Z,8.6
2023-03-29T21:24:01.081Z,8.6
2023-03-29T21:26:01.076Z,8.4
2023-03-29T21:29:01.024Z,8.5
2023-03-29T21:36:01.102Z,8.6
2023-03-29T21:38:01.068Z,8.6
2023-03-29T21:41:01.011Z,8.6
2023-03-29T21:43:00.976Z,8.5
2023-03-29T21:45:01.045Z,8.6
2023-03-29T21:46:01.022Z,8.5
2023-03-29T21:49:00.954Z,8.7
2023-03-29T21:50:01.018Z,8.6
2023-03-29T21:52:01.094Z,8.7
2023-03-29T21:54:01.068Z,8.5
2023-03-29T21:55:01.149Z,8.7
2023-03-29T21:58:01.119Z,8.6
2023-03-29T22:01:01.112Z,8.8
2023-03-29T22:05:01.029Z,8.9
2023-03-29T22:06:01.090Z,8.8
2023-03-29T22:08:01.034Z,8.8
2023-03-29T22:09:01.075Z,8.9
2023-03-29T22:10:01.070Z,8.8
2023-03-29T22:12:01.103Z,9.1
2023-03-29T22:13:01.087Z,8.8
2023-03-29T22:15:01.132Z,8.9
2023-03-29T22:19:01.007Z,9
2023-03-29T22:20:01.039Z,8.9
2023-03-29T22:23:00.973Z,9
2023-03-29T22:24:01.020Z,8.9
2023-03-29T22:27:01.130Z,9
2023-03-29T22:29:01.066Z,8.8
2023-03-29T22:31:01.074Z,8.9
2023-03-29T22:32:01.063Z,8.8
2023-03-29T22:35:01.049Z,8.8
2023-03-29T22:38:01.090Z,9
2023-03-29T22:46:01.097Z,8.8
2023-03-29T22:49:00.987Z,8.9
2023-03-29T22:51:01.100Z,8.7
2023-03-29T22:53:00.961Z,8.8
2023-03-29T22:56:01.058Z,8.9
2023-03-29T22:59:01.024Z,8.8
2023-03-29T23:00:01.155Z,8.9
2023-03-29T23:03:01.092Z,8.6
2023-03-29T23:04:01.086Z,8.7
2023-03-29T23:06:01.050Z,8.9
2023-03-29T23:09:01.083Z,8.8
2023-03-29T23:10:01.074Z,8.7
2023-03-29T23:12:01.172Z,8.7
2023-03-29T23:14:01.077Z,8.8
2023-03-29T23:15:01.088Z,8.7
2023-03-29T23:17:01.117Z,8.8
2023-03-29T23:20:01.085Z,8.7
2023-03-29T23:25:01.153Z,8.9
2023-03-29T23:32:01.094Z,8.8
2023-03-29T23:34:01.271Z,8.8
2023-03-29T23:37:01.006Z,8.6
2023-03-29T23:38:01.176Z,8.9
2023-03-29T23:41:01.279Z,9
2023-03-29T23:42:01.030Z,8.8
2023-03-29T23:44:01.034Z,8.7
2023-03-29T23:45:01.051Z,8.9
2023-03-29T23:46:01.093Z,8.8
2023-03-29T23:50:01.062Z,8.7
2023-03-29T23:53:01.204Z,9
2023-03-29T23:56:01.093Z,9
2023-03-29T23:57:01.178Z,8.9
2023-03-29T23:59:00.979Z,8.9
